createdAt,value
2023-03-06T04:15:57.760Z,0.52
2023-03-06T04:16:57.814Z,0.52
2023-03-06T04:17:57.890Z,0.52
2023-03-06T04:18:57.936Z,0.51
2023-03-06T04:19:58.111Z,0.51
2023-03-06T04:20:58.040Z,0.51
2023-03-06T04:21:58.113Z,0.52
2023-03-06T04:22:58.166Z,0.52
2023-03-06T04:23:58.222Z,0.52
2023-03-06T04:24:58.314Z,0.52
2023-03-06T04:25:58.407Z,0.52
2023-03-06T04:26:58.493Z,0.53
2023-03-06T04:27:58.574Z,0.52
2023-03-06T04:28:58.654Z,0.53
2023-03-06T04:29:58.724Z,0.53
2023-03-06T04:30:58.811Z,0.52
2023-03-06T04:31:58.862Z,0.52
2023-03-06T04:32:58.896Z,0.52
2023-03-06T04:33:58.927Z,0.53
2023-03-06T04:34:58.959Z,0.51
2023-03-06T04:35:58.994Z,0.52
2023-03-06T04:36:59.073Z,0.51
2023-03-06T04:37:59.158Z,0.51
2023-03-06T04:38:59.282Z,0.51
2023-03-06T04:39:59.259Z,0.51
2023-03-06T04:40:59.333Z,0.53
2023-03-06T04:41:59.412Z,0.51
2023-03-06T04:42:59.492Z,0.52
2023-03-06T04:43:59.560Z,0.52
2023-03-06T04:44:59.614Z,0.52
2023-03-06T04:45:59.735Z,0.52
2023-03-06T06:22:07.729Z,0.51
2023-03-06T06:23:07.760Z,0.50
2023-03-06T06:24:07.789Z,0.51
2023-03-06T06:25:07.821Z,0.51
2023-03-06T06:26:08.680Z,0.51
2023-03-06T06:27:07.905Z,0.51
2023-03-06T06:28:07.990Z,0.52
2023-03-06T06:29:08.078Z,0.54
2023-03-06T06:30:08.161Z,0.57
2023-03-06T06:31:08.312Z,0.55
2023-03-06T06:32:08.408Z,0.55
2023-03-06T06:33:08.405Z,0.56
2023-03-06T06:34:08.507Z,0.57
2023-03-06T06:35:08.579Z,0.58
2023-03-06T06:36:08.675Z,0.57
2023-03-06T06:37:08.759Z,0.59
2023-03-06T06:38:08.814Z,0.60
2023-03-06T06:39:08.907Z,0.61
2023-03-06T06:40:08.980Z,0.60
2023-03-06T06:41:36.019Z,0.60
2023-03-06T06:42:29.852Z,0.60
2023-03-06T06:43:10.100Z,0.60
2023-03-06T06:44:09.119Z,0.61
2023-03-06T06:45:09.135Z,0.62
2023-03-06T06:46:36.382Z,0.63
2023-03-06T06:47:26.119Z,0.60
2023-03-06T06:48:10.241Z,0.60
2023-03-06T06:49:09.267Z,0.61
2023-03-06T06:50:09.218Z,0.62
2023-03-06T06:51:09.230Z,0.63
2023-03-06T06:52:09.247Z,0.63
2023-03-06T06:53:09.260Z,0.63
2023-03-06T06:54:09.286Z,0.66
2023-03-06T06:55:09.306Z,0.64
2023-03-06T06:56:09.321Z,0.64
2023-03-06T06:57:09.345Z,0.63
2023-03-06T06:58:09.397Z,0.63
2023-03-06T06:59:16.563Z,0.65
2023-03-06T07:00:10.412Z,0.65
2023-03-06T07:01:09.449Z,0.65
2023-03-06T07:02:09.448Z,0.65
2023-03-06T07:03:09.464Z,0.64
2023-03-06T07:04:09.491Z,0.64
2023-03-06T07:05:09.511Z,0.66
2023-03-06T07:06:09.522Z,0.65
2023-03-06T07:07:09.533Z,0.65
2023-03-06T07:08:09.541Z,0.67
2023-03-06T07:09:09.635Z,0.66
2023-03-06T07:10:09.727Z,0.65
2023-03-06T07:11:09.819Z,0.65
2023-03-06T07:12:09.901Z,0.65
2023-03-06T07:13:09.995Z,0.65
2023-03-06T07:14:10.069Z,0.65
2023-03-06T07:15:10.137Z,0.65
2023-03-06T07:16:10.244Z,0.66
2023-03-06T07:17:10.235Z,0.65
2023-03-06T07:18:10.292Z,0.66
2023-03-06T09:41:16.918Z,2.02
2023-03-06T09:58:17.581Z,1.85
2023-03-06T09:59:17.584Z,1.87
2023-03-06T10:00:17.614Z,1.87
2023-03-06T10:01:17.675Z,1.83
2023-03-06T10:02:17.825Z,1.87
2023-03-06T10:03:18.057Z,1.85
2023-03-06T10:04:17.885Z,1.82
2023-03-06T10:05:17.964Z,1.85
2023-03-06T10:06:18.036Z,1.83
2023-03-06T10:07:18.098Z,1.80
2023-03-06T10:08:18.145Z,1.84
2023-03-06T10:09:18.157Z,1.80
2023-03-06T10:10:18.205Z,1.80
2023-03-06T10:11:18.240Z,1.81
2023-03-06T10:12:18.317Z,1.81
2023-03-06T10:13:18.394Z,1.78
2023-03-06T10:14:18.465Z,1.84
2023-03-06T10:16:18.620Z,1.78
2023-03-06T10:17:18.715Z,1.82
2023-03-06T10:18:18.799Z,1.78
2023-03-06T10:19:18.882Z,1.77
2023-03-06T10:20:18.960Z,1.74
2023-03-06T10:21:19.642Z,1.70
2023-03-06T10:22:19.095Z,1.71
2023-03-06T10:24:19.248Z,1.69
2023-03-06T10:25:19.317Z,1.70
2023-03-06T10:26:19.437Z,1.69
2023-03-06T10:27:19.523Z,1.70
2023-03-06T10:28:19.536Z,1.70
2023-03-06T10:29:20.340Z,1.67
2023-03-06T10:35:20.322Z,1.58
2023-03-06T10:43:20.753Z,1.55
2023-03-06T11:32:23.377Z,1.72
2023-03-06T11:33:23.364Z,1.68
2023-03-06T11:34:23.392Z,1.71
2023-03-06T11:35:23.447Z,1.74
2023-03-06T11:36:23.478Z,1.75
2023-03-06T11:37:23.577Z,1.80
2023-03-06T11:38:23.556Z,1.83
2023-03-06T11:39:23.594Z,1.78
2023-03-06T11:40:23.626Z,1.78
2023-03-06T11:41:23.659Z,1.77
2023-03-06T11:42:23.697Z,1.83
2023-03-06T11:43:23.726Z,1.79
2023-03-06T11:44:23.767Z,1.79
2023-03-06T11:45:23.807Z,1.88
2023-03-06T11:46:23.887Z,1.84
2023-03-06T11:47:23.876Z,1.90
2023-03-06T11:48:23.916Z,1.91
2023-03-06T11:49:23.982Z,1.95
2023-03-06T11:50:23.987Z,1.88
2023-03-06T11:51:24.018Z,1.94
2023-03-06T11:52:24.056Z,1.96
2023-03-06T11:53:24.783Z,1.94
2023-03-06T11:54:24.129Z,1.99
2023-03-06T11:55:24.170Z,2.00
2023-03-06T11:56:24.210Z,2.02
2023-03-06T11:57:24.243Z,2.04
2023-03-06T11:58:24.279Z,2.09
2023-03-06T11:59:24.334Z,2.12
2023-03-06T12:00:24.354Z,2.10
2023-03-06T12:01:24.409Z,2.09
2023-03-06T12:02:24.487Z,2.13
2023-03-06T12:03:24.479Z,2.15
2023-03-06T12:04:24.526Z,2.11
2023-03-06T14:24:33.380Z,0.97
2023-03-06T14:25:33.396Z,0.97
2023-03-06T14:26:33.441Z,0.97
2023-03-06T14:27:33.491Z,0.97
2023-03-06T14:28:33.538Z,0.97
2023-03-06T14:29:33.590Z,0.97
2023-03-06T14:30:33.635Z,0.98
2023-03-06T14:31:33.842Z,0.96
2023-03-06T14:32:33.725Z,0.97
2023-03-06T14:33:33.716Z,0.97
2023-03-06T14:34:33.777Z,0.96
2023-03-06T14:35:33.858Z,0.95
2023-03-06T14:36:33.937Z,0.97
2023-03-06T14:37:34.015Z,0.98
2023-03-06T14:38:34.088Z,0.97
2023-03-06T14:39:34.152Z,0.97
2023-03-06T14:40:34.230Z,0.98
2023-03-06T14:41:34.294Z,0.98
2023-03-06T14:42:34.383Z,0.97
2023-03-06T14:43:34.450Z,0.97
2023-03-06T14:44:34.528Z,0.98
2023-03-06T14:45:34.606Z,0.98
2023-03-06T14:46:34.714Z,0.96
2023-03-06T14:47:34.787Z,0.99
2023-03-06T14:48:34.856Z,0.97
2023-03-06T14:49:34.931Z,0.96
2023-03-06T14:50:34.985Z,0.97
2023-03-06T14:51:35.062Z,0.97
2023-03-06T14:52:35.147Z,0.94
2023-03-06T14:53:35.216Z,0.97
2023-03-06T14:54:35.303Z,0.96
2023-03-06T14:55:35.442Z,0.97
2023-03-06T14:56:35.403Z,0.97
2023-03-06T14:57:35.467Z,0.97
2023-03-06T14:58:35.524Z,0.95
2023-03-06T15:00:35.723Z,0.94
2023-03-06T15:01:35.725Z,0.97
2023-03-06T15:02:35.799Z,0.94
2023-03-06T15:03:35.714Z,0.96
2023-03-06T15:04:35.770Z,0.96
2023-03-06T15:05:35.807Z,0.96
2023-03-06T15:06:35.842Z,0.97
2023-03-06T15:07:35.870Z,0.94
2023-03-06T15:08:35.887Z,0.96
2023-03-06T15:09:35.954Z,0.95
2023-03-06T15:10:36.026Z,0.95
2023-03-06T15:11:36.118Z,0.95
2023-03-06T18:55:43.299Z,0.83
2023-03-06T18:56:43.337Z,0.81
2023-03-06T18:57:43.373Z,0.79
2023-03-06T18:58:43.408Z,0.80
2023-03-06T18:59:43.446Z,0.81
2023-03-06T19:00:43.529Z,0.81
2023-03-06T19:01:43.532Z,0.81
2023-03-06T19:02:43.580Z,0.80
2023-03-06T19:03:43.662Z,0.80
2023-03-06T19:04:43.664Z,0.79
2023-03-06T19:05:43.715Z,0.80
2023-03-06T19:06:43.727Z,0.81
2023-03-06T19:07:43.766Z,0.79
2023-03-06T19:08:43.805Z,0.79
2023-03-06T19:09:43.864Z,0.79
2023-03-06T19:10:43.892Z,0.78
2023-03-06T19:11:43.920Z,0.80
2023-03-06T19:12:43.961Z,0.78
2023-03-06T19:13:44.001Z,0.79
2023-03-06T19:14:44.052Z,0.79
2023-03-06T19:15:44.077Z,0.80
2023-03-06T19:16:44.175Z,0.78
2023-03-06T19:17:44.175Z,0.79
2023-03-06T19:18:44.201Z,0.79
2023-03-06T19:19:44.232Z,0.81
2023-03-06T19:20:44.274Z,0.78
2023-03-06T19:21:44.316Z,0.80
2023-03-06T19:22:44.359Z,0.79
2023-03-06T19:23:44.407Z,0.80
2023-03-06T19:24:44.436Z,0.79
2023-03-06T19:25:44.471Z,0.79
2023-03-06T19:26:44.559Z,0.80
2023-03-06T19:27:44.570Z,0.78
2023-03-06T19:28:44.600Z,0.81
2023-03-06T19:29:44.636Z,0.77
2023-03-06T19:30:44.671Z,0.80
2023-03-06T19:31:44.728Z,0.78
2023-03-06T19:32:44.800Z,0.77
2023-03-06T19:33:44.789Z,0.78
2023-03-06T19:34:44.828Z,0.78
2023-03-06T19:35:44.977Z,0.78
2023-03-06T19:36:44.906Z,0.78
2023-03-06T19:37:44.943Z,0.79
2023-03-06T19:38:44.988Z,0.77
2023-03-06T19:39:45.039Z,0.78
2023-03-06T19:40:45.061Z,0.79
2023-03-06T19:41:45.116Z,0.78
2023-03-06T19:42:45.157Z,0.76
2023-03-06T19:43:45.186Z,0.78
2023-03-06T19:44:45.222Z,0.76
2023-03-06T19:45:45.309Z,0.78
2023-03-06T19:46:45.313Z,0.80
2023-03-06T19:47:45.342Z,0.78
2023-03-06T19:48:45.379Z,0.79
2023-03-06T19:49:45.421Z,0.78
2023-03-06T19:50:45.460Z,0.79
2023-03-06T19:51:45.499Z,0.78
2023-03-06T19:52:45.547Z,0.76
2023-03-06T19:53:45.596Z,0.78
2023-03-06T19:54:45.634Z,0.78
2023-03-06T19:55:45.789Z,0.76
2023-03-06T19:56:45.722Z,0.77
2023-03-06T19:57:45.769Z,0.78
2023-03-06T19:58:45.797Z,0.79
2023-03-06T19:59:45.847Z,0.78
2023-03-06T20:00:45.897Z,0.77
2023-03-06T20:01:46.044Z,0.77
2023-03-06T20:02:46.095Z,0.77
2023-03-06T20:03:46.030Z,0.77
2023-03-06T20:04:46.085Z,0.78
2023-03-06T20:05:46.119Z,0.77
2023-03-06T20:06:46.139Z,0.78
2023-03-06T20:07:46.192Z,0.78
2023-03-06T20:08:46.246Z,0.76
2023-03-06T20:09:46.265Z,0.78
2023-03-06T20:10:46.297Z,0.78
2023-03-06T20:11:46.332Z,0.76
2023-03-06T20:12:46.442Z,0.78
2023-03-06T20:13:47.912Z,0.77
2023-03-06T20:14:46.437Z,0.78
2023-03-06T20:15:46.505Z,0.77
2023-03-06T20:16:46.546Z,0.76
2023-03-06T20:17:46.588Z,0.78
2023-03-06T20:18:46.635Z,0.76
2023-03-06T20:19:46.628Z,0.76
2023-03-06T20:20:46.668Z,0.77
2023-03-06T20:21:46.794Z,0.77
2023-03-06T20:22:46.754Z,0.78
2023-03-06T20:23:46.781Z,0.77
2023-03-06T20:24:46.827Z,0.78
2023-03-06T20:25:46.861Z,0.77
2023-03-06T20:26:46.897Z,0.77
2023-03-06T20:27:46.927Z,0.78
2023-03-06T20:28:46.965Z,0.77
2023-03-06T20:29:47.003Z,0.77
2023-03-06T20:30:47.057Z,0.78
2023-03-06T20:31:47.086Z,0.76
2023-03-06T20:32:47.118Z,0.77
2023-03-06T20:33:47.170Z,0.78
2023-03-06T20:34:47.205Z,0.76
2023-03-06T20:35:47.242Z,0.76
2023-03-06T20:36:47.285Z,0.77
2023-03-06T20:37:47.306Z,0.77
2023-03-06T20:38:47.357Z,0.77
2023-03-06T20:39:47.386Z,0.77
2023-03-06T20:40:47.431Z,0.76
2023-03-06T20:41:47.466Z,0.78
2023-03-06T20:42:47.529Z,0.76
2023-03-06T20:43:47.551Z,0.76
2023-03-06T20:44:47.592Z,0.78
2023-03-06T20:45:47.637Z,0.76
2023-03-06T20:46:47.711Z,0.76
2023-03-06T20:47:47.726Z,0.76
2023-03-06T20:48:47.762Z,0.77
2023-03-06T20:49:47.812Z,0.76
2023-03-06T20:50:47.848Z,0.79
2023-03-06T20:51:47.904Z,0.76
2023-03-06T20:52:47.941Z,0.76
2023-03-06T20:53:48.119Z,0.78
2023-03-06T20:54:48.028Z,0.76
2023-03-06T20:55:49.969Z,0.77
2023-03-06T20:56:48.117Z,0.77
2023-03-06T20:57:48.162Z,0.78
2023-03-06T20:58:48.209Z,0.76
2023-03-06T20:59:48.252Z,0.76
2023-03-06T21:00:48.285Z,0.77
2023-03-06T21:01:48.375Z,0.75
2023-03-06T21:02:48.378Z,0.75
2023-03-06T21:03:48.404Z,0.76
2023-03-06T21:04:48.485Z,0.78
2023-03-06T21:05:48.496Z,0.76
2023-03-06T21:06:48.531Z,0.76
2023-03-06T21:07:48.578Z,0.75
2023-03-06T21:08:48.628Z,0.75
2023-03-06T21:09:48.650Z,0.74
2023-03-06T21:10:48.703Z,0.77
2023-03-06T21:11:48.735Z,0.76
2023-03-06T21:12:48.800Z,0.75
2023-03-06T21:13:48.828Z,0.76
2023-03-06T21:14:48.868Z,0.75
2023-03-06T21:15:48.969Z,0.74
2023-03-06T21:16:48.956Z,0.75
2023-03-06T21:17:49.002Z,0.75
2023-03-06T21:18:49.043Z,0.75
2023-03-06T21:19:49.081Z,0.76
2023-03-06T21:20:49.132Z,0.75
2023-03-06T21:21:49.173Z,0.74
2023-03-06T21:22:49.212Z,0.76
2023-03-06T21:23:49.255Z,0.75
2023-03-06T21:24:49.308Z,0.74
2023-03-06T21:25:49.348Z,0.74
2023-03-06T21:26:49.382Z,0.75
2023-03-06T21:27:49.422Z,0.75
2023-03-06T21:28:49.471Z,0.77
2023-03-06T21:29:49.502Z,0.75
2023-03-06T21:30:49.547Z,0.75
2023-03-06T21:31:49.595Z,0.74
2023-03-06T21:32:49.640Z,0.75
2023-03-06T21:33:49.672Z,0.75
2023-03-06T21:34:49.717Z,0.75
2023-03-06T21:35:49.804Z,0.76
2023-03-06T21:36:49.787Z,0.75
2023-03-06T21:37:49.906Z,0.75
2023-03-06T21:38:49.886Z,0.73
2023-03-06T21:39:49.916Z,0.74
2023-03-06T21:40:49.963Z,0.73
2023-03-06T21:41:50.014Z,0.76
2023-03-06T21:42:50.044Z,0.74
2023-03-06T21:43:50.083Z,0.74
2023-03-06T21:44:50.139Z,0.75
2023-03-06T21:45:50.234Z,0.76
2023-03-06T21:46:50.231Z,0.76
2023-03-06T21:47:50.268Z,0.73
2023-03-06T21:48:50.313Z,0.74
2023-03-06T21:49:50.361Z,0.74
2023-03-06T21:50:50.408Z,0.74
2023-03-06T21:51:50.449Z,0.74
2023-03-06T21:52:50.514Z,0.75
2023-03-06T21:53:50.549Z,0.73
2023-03-06T21:54:50.586Z,0.74
2023-03-06T21:55:50.641Z,0.75
2023-03-06T21:56:50.681Z,0.72
2023-03-06T21:57:50.730Z,0.74
2023-03-06T21:58:50.779Z,0.74
2023-03-06T21:59:50.822Z,0.75
2023-03-06T22:00:50.929Z,0.74
2023-03-06T22:01:50.921Z,0.73
2023-03-06T22:02:50.954Z,0.73
2023-03-06T22:03:51.009Z,0.74
2023-03-06T22:58:53.295Z,0.69
2023-03-06T22:59:53.325Z,0.70
2023-03-06T23:00:53.371Z,0.70
2023-03-06T23:01:53.362Z,0.70
2023-03-06T23:02:53.404Z,0.71
2023-03-06T23:03:53.448Z,0.70
2023-03-06T23:04:53.502Z,0.70
2023-03-06T23:05:53.553Z,0.70
2023-03-06T23:06:53.608Z,0.71
2023-03-06T23:07:53.665Z,0.71
2023-03-06T23:08:53.713Z,0.69
2023-03-06T23:09:53.764Z,0.70
2023-03-06T23:10:53.803Z,0.72
2023-03-06T23:11:53.860Z,0.70
2023-03-06T23:12:53.945Z,0.70
2023-03-06T23:13:53.958Z,0.70
2023-03-06T23:14:54.070Z,0.68
2023-03-06T23:15:54.100Z,0.71
2023-03-06T23:16:54.099Z,0.70
2023-03-06T23:17:54.155Z,0.69
2023-03-06T23:18:54.202Z,0.70
2023-03-06T23:19:54.242Z,0.70
2023-03-06T23:20:54.290Z,0.70
2023-03-06T23:21:54.340Z,0.69
2023-03-06T23:22:54.392Z,0.71
2023-03-06T23:23:54.428Z,0.71
2023-03-06T23:24:54.477Z,0.71
2023-03-06T23:25:54.515Z,0.71
2023-03-06T23:26:54.557Z,0.69
2023-03-06T23:27:54.602Z,0.69
2023-03-06T23:28:54.644Z,0.70
2023-03-06T23:29:54.692Z,0.68
2023-03-06T23:30:54.779Z,0.68
2023-03-06T23:31:54.786Z,0.68
2023-03-06T23:32:54.820Z,0.70
2023-03-06T23:33:54.866Z,0.70
2023-03-06T23:34:54.907Z,0.68
2023-03-06T23:35:55.042Z,0.69
2023-03-06T23:36:54.986Z,0.69
2023-03-06T23:37:55.031Z,0.69
2023-03-06T23:38:55.076Z,0.69
2023-03-06T23:39:55.120Z,0.68
2023-03-06T23:40:55.162Z,0.69
2023-03-06T23:41:55.208Z,0.69
2023-03-06T23:42:55.271Z,0.68
2023-03-06T23:43:55.494Z,0.68
2023-03-06T23:44:55.347Z,0.69
2023-03-06T23:45:55.424Z,0.67
2023-03-06T23:46:55.433Z,0.69
2023-03-06T23:47:55.477Z,0.68
2023-03-06T23:48:55.515Z,0.69
2023-03-06T23:49:55.560Z,0.68
2023-03-06T23:50:55.601Z,0.68
2023-03-06T23:51:55.645Z,0.69
2023-03-06T23:52:55.691Z,0.68
2023-03-06T23:53:55.733Z,0.70
2023-03-06T23:54:55.792Z,0.69
2023-03-06T23:55:55.828Z,0.67
2023-03-06T23:56:55.870Z,0.67
2023-03-06T23:57:55.908Z,0.68
2023-03-06T23:58:55.965Z,0.66
2023-03-06T23:59:55.995Z,0.67
